sensor_id;sensor_type;location;lat;lon;timestamp;P1;durP1;ratioP1;P2;durP2;ratioP2
19679;SDS011;9989;48.962;9.182;2023-10-31T00:02:08;3.67;;;1.30;;
19679;SDS011;9989;48.962;9.182;2023-10-31T00:04:34;1.53;;;1.00;;
19679;SDS011;9989;48.962;9.182;2023-10-31T00:07:00;2.77;;;1.00;;
19679;SDS011;9989;48.962;9.182;2023-10-31T00:09:26;2.67;;;1.17;;
19679;SDS011;9989;48.962;9.182;2023-10-31T00:11:51;2.30;;;1.30;;
19679;SDS011;9989;48.962;9.182;2023-10-31T00:14:17;2.80;;;1.10;;
19679;SDS011;9989;48.962;9.182;2023-10-31T00:16:42;4.07;;;1.40;;
19679;SDS011;9989;48.962;9.182;2023-10-31T00:19:08;2.70;;;1.40;;
19679;SDS011;9989;48.962;9.182;2023-10-31T00:21:34;2.40;;;1.27;;
19679;SDS011;9989;48.962;9.182;2023-10-31T00:24:00;2.73;;;1.30;;
19679;SDS011;9989;48.962;9.182;2023-10-31T00:26:25;2.37;;;1.40;;
19679;SDS011;9989;48.962;9.182;2023-10-31T00:28:51;3.23;;;1.20;;
19679;SDS011;9989;48.962;9.182;2023-10-31T00:31:17;1.77;;;1.00;;
19679;SDS011;9989;48.962;9.182;2023-10-31T00:33:42;2.23;;;1.00;;
19679;SDS011;9989;48.962;9.182;2023-10-31T00:36:08;1.77;;;1.10;;
19679;SDS011;9989;48.962;9.182;2023-10-31T00:38:34;1.30;;;0.87;;
19679;SDS011;9989;48.962;9.182;2023-10-31T00:41:00;1.40;;;0.90;;
19679;SDS011;9989;48.962;9.182;2023-10-31T00:43:25;2.77;;;0.90;;
19679;SDS011;9989;48.962;9.182;2023-10-31T00:45:51;1.60;;;0.90;;
19679;SDS011;9989;48.962;9.182;2023-10-31T00:48:16;1.10;;;0.77;;
19679;SDS011;9989;48.962;9.182;2023-10-31T00:50:43;1.07;;;0.80;;
19679;SDS011;9989;48.962;9.182;2023-10-31T00:53:08;2.57;;;1.10;;
19679;SDS011;9989;48.962;9.182;2023-10-31T00:55:34;1.73;;;0.80;;
19679;SDS011;9989;48.962;9.182;2023-10-31T00:58:00;3.03;;;0.80;;
19679;SDS011;9989;48.962;9.182;2023-10-31T01:00:25;1.93;;;1.10;;
19679;SDS011;9989;48.962;9.182;2023-10-31T01:02:51;3.97;;;1.00;;
19679;SDS011;9989;48.962;9.182;2023-10-31T01:05:17;2.40;;;1.33;;
19679;SDS011;9989;48.962;9.182;2023-10-31T01:07:42;1.97;;;1.00;;
19679;SDS011;9989;48.962;9.182;2023-10-31T01:10:08;1.73;;;0.80;;
19679;SDS011;9989;48.962;9.182;2023-10-31T01:12:34;1.90;;;0.90;;
19679;SDS011;9989;48.962;9.182;2023-10-31T01:14:59;1.80;;;0.97;;
19679;SDS011;9989;48.962;9.182;2023-10-31T01:17:25;8.97;;;2.10;;
19679;SDS011;9989;48.962;9.182;2023-10-31T01:19:50;2.60;;;1.10;;
19679;SDS011;9989;48.962;9.182;2023-10-31T01:22:16;2.50;;;1.07;;
19679;SDS011;9989;48.962;9.182;2023-10-31T01:24:42;1.90;;;0.93;;
19679;SDS011;9989;48.962;9.182;2023-10-31T01:27:08;1.60;;;0.90;;
19679;SDS011;9989;48.962;9.182;2023-10-31T01:29:33;3.00;;;1.37;;
19679;SDS011;9989;48.962;9.182;2023-10-31T01:31:59;2.50;;;1.00;;
19679;SDS011;9989;48.962;9.182;2023-10-31T01:34:25;2.80;;;1.10;;
19679;SDS011;9989;48.962;9.182;2023-10-31T01:36:50;1.33;;;0.90;;
19679;SDS011;9989;48.962;9.182;2023-10-31T01:39:16;2.23;;;1.10;;
19679;SDS011;9989;48.962;9.182;2023-10-31T01:41:42;5.33;;;1.20;;
19679;SDS011;9989;48.962;9.182;2023-10-31T01:44:08;2.97;;;1.17;;
19679;SDS011;9989;48.962;9.182;2023-10-31T01:46:34;3.37;;;1.40;;
19679;SDS011;9989;48.962;9.182;2023-10-31T01:49:00;3.47;;;1.07;;
19679;SDS011;9989;48.962;9.182;2023-10-31T01:51:26;4.07;;;1.80;;
19679;SDS011;9989;48.962;9.182;2023-10-31T01:53:53;2.53;;;0.93;;
19679;SDS011;9989;48.962;9.182;2023-10-31T01:56:19;3.20;;;1.33;;
19679;SDS011;9989;48.962;9.182;2023-10-31T01:58:45;2.77;;;1.27;;
19679;SDS011;9989;48.962;9.182;2023-10-31T02:01:14;1.77;;;1.00;;
19679;SDS011;9989;48.962;9.182;2023-10-31T02:03:40;2.93;;;1.40;;
19679;SDS011;9989;48.962;9.182;2023-10-31T02:06:05;4.67;;;1.23;;
19679;SDS011;9989;48.962;9.182;2023-10-31T02:08:31;2.83;;;1.30;;
19679;SDS011;9989;48.962;9.182;2023-10-31T02:10:57;4.40;;;1.30;;
19679;SDS011;9989;48.962;9.182;2023-10-31T02:13:23;3.17;;;1.00;;
19679;SDS011;9989;48.962;9.182;2023-10-31T02:15:49;1.77;;;0.90;;
19679;SDS011;9989;48.962;9.182;2023-10-31T02:18:15;2.20;;;1.10;;
19679;SDS011;9989;48.962;9.182;2023-10-31T02:20:40;2.93;;;1.27;;
19679;SDS011;9989;48.962;9.182;2023-10-31T02:23:06;2.23;;;1.00;;
19679;SDS011;9989;48.962;9.182;2023-10-31T02:25:32;2.60;;;1.10;;
19679;SDS011;9989;48.962;9.182;2023-10-31T02:27:57;4.20;;;1.43;;
19679;SDS011;9989;48.962;9.182;2023-10-31T02:30:23;2.23;;;1.20;;
19679;SDS011;9989;48.962;9.182;2023-10-31T02:32:49;1.67;;;0.90;;
19679;SDS011;9989;48.962;9.182;2023-10-31T02:35:15;1.47;;;0.80;;
19679;SDS011;9989;48.962;9.182;2023-10-31T02:37:43;2.77;;;1.20;;
19679;SDS011;9989;48.962;9.182;2023-10-31T02:40:09;2.40;;;1.00;;
19679;SDS011;9989;48.962;9.182;2023-10-31T02:42:35;3.27;;;1.50;;
19679;SDS011;9989;48.962;9.182;2023-10-31T02:45:01;3.77;;;1.20;;
19679;SDS011;9989;48.962;9.182;2023-10-31T02:47:28;3.33;;;1.37;;
19679;SDS011;9989;48.962;9.182;2023-10-31T02:49:53;1.17;;;0.80;;
19679;SDS011;9989;48.962;9.182;2023-10-31T02:52:19;2.73;;;1.03;;
19679;SDS011;9989;48.962;9.182;2023-10-31T02:54:45;2.67;;;0.97;;
19679;SDS011;9989;48.962;9.182;2023-10-31T02:57:10;4.23;;;1.03;;
19679;SDS011;9989;48.962;9.182;2023-10-31T02:59:36;1.67;;;1.00;;
19679;SDS011;9989;48.962;9.182;2023-10-31T03:02:02;2.80;;;1.47;;
19679;SDS011;9989;48.962;9.182;2023-10-31T03:04:27;2.73;;;1.20;;
19679;SDS011;9989;48.962;9.182;2023-10-31T03:06:53;1.80;;;1.23;;
19679;SDS011;9989;48.962;9.182;2023-10-31T03:09:19;3.07;;;1.30;;
19679;SDS011;9989;48.962;9.182;2023-10-31T03:11:44;5.00;;;1.90;;
19679;SDS011;9989;48.962;9.182;2023-10-31T03:14:10;5.63;;;1.90;;
19679;SDS011;9989;48.962;9.182;2023-10-31T03:16:36;4.60;;;1.80;;
19679;SDS011;9989;48.962;9.182;2023-10-31T03:19:01;4.87;;;1.60;;
19679;SDS011;9989;48.962;9.182;2023-10-31T03:21:27;5.23;;;1.63;;
19679;SDS011;9989;48.962;9.182;2023-10-31T03:23:53;4.00;;;1.43;;
19679;SDS011;9989;48.962;9.182;2023-10-31T03:26:20;3.93;;;1.23;;
19679;SDS011;9989;48.962;9.182;2023-10-31T03:28:46;2.63;;;1.63;;
19679;SDS011;9989;48.962;9.182;2023-10-31T03:31:12;3.57;;;1.00;;
19679;SDS011;9989;48.962;9.182;2023-10-31T03:33:38;2.20;;;1.10;;
19679;SDS011;9989;48.962;9.182;2023-10-31T03:36:04;2.00;;;1.03;;
19679;SDS011;9989;48.962;9.182;2023-10-31T03:38:31;2.57;;;1.00;;
19679;SDS011;9989;48.962;9.182;2023-10-31T03:40:56;3.63;;;1.40;;
19679;SDS011;9989;48.962;9.182;2023-10-31T03:43:22;1.23;;;0.80;;
19679;SDS011;9989;48.962;9.182;2023-10-31T03:45:48;3.37;;;1.20;;
19679;SDS011;9989;48.962;9.182;2023-10-31T03:48:15;2.27;;;1.00;;
19679;SDS011;9989;48.962;9.182;2023-10-31T03:50:41;2.20;;;1.00;;
19679;SDS011;9989;48.962;9.182;2023-10-31T03:53:07;3.77;;;1.23;;
19679;SDS011;9989;48.962;9.182;2023-10-31T03:55:33;1.87;;;1.10;;
19679;SDS011;9989;48.962;9.182;2023-10-31T03:57:59;1.50;;;0.80;;
19679;SDS011;9989;48.962;9.182;2023-10-31T04:00:24;2.60;;;0.90;;
19679;SDS011;9989;48.962;9.182;2023-10-31T04:02:50;2.80;;;0.90;;
19679;SDS011;9989;48.962;9.182;2023-10-31T04:05:16;1.83;;;0.90;;
19679;SDS011;9989;48.962;9.182;2023-10-31T04:07:41;1.37;;;1.00;;
19679;SDS011;9989;48.962;9.182;2023-10-31T04:10:08;2.80;;;1.13;;
19679;SDS011;9989;48.962;9.182;2023-10-31T04:12:34;4.27;;;1.10;;
19679;SDS011;9989;48.962;9.182;2023-10-31T04:14:59;1.73;;;1.07;;
19679;SDS011;9989;48.962;9.182;2023-10-31T04:17:25;4.00;;;1.40;;
19679;SDS011;9989;48.962;9.182;2023-10-31T04:19:51;5.40;;;1.43;;
19679;SDS011;9989;48.962;9.182;2023-10-31T04:22:17;3.30;;;1.10;;
19679;SDS011;9989;48.962;9.182;2023-10-31T04:24:43;2.67;;;1.20;;
19679;SDS011;9989;48.962;9.182;2023-10-31T04:27:08;3.43;;;1.10;;
19679;SDS011;9989;48.962;9.182;2023-10-31T04:29:34;3.17;;;1.20;;
19679;SDS011;9989;48.962;9.182;2023-10-31T04:31:59;2.40;;;1.10;;
19679;SDS011;9989;48.962;9.182;2023-10-31T04:34:25;3.67;;;1.50;;
19679;SDS011;9989;48.962;9.182;2023-10-31T04:36:51;2.40;;;0.90;;
19679;SDS011;9989;48.962;9.182;2023-10-31T04:39:17;2.43;;;1.10;;
19679;SDS011;9989;48.962;9.182;2023-10-31T04:41:42;3.73;;;1.20;;
19679;SDS011;9989;48.962;9.182;2023-10-31T04:44:08;2.00;;;1.00;;
19679;SDS011;9989;48.962;9.182;2023-10-31T04:46:33;3.30;;;1.00;;
19679;SDS011;9989;48.962;9.182;2023-10-31T04:48:59;5.87;;;1.33;;
19679;SDS011;9989;48.962;9.182;2023-10-31T04:51:25;1.77;;;0.97;;
19679;SDS011;9989;48.962;9.182;2023-10-31T04:53:50;1.30;;;0.73;;
19679;SDS011;9989;48.962;9.182;2023-10-31T04:56:16;1.97;;;0.93;;
19679;SDS011;9989;48.962;9.182;2023-10-31T04:58:42;2.60;;;1.10;;
19679;SDS011;9989;48.962;9.182;2023-10-31T05:01:11;6.03;;;1.00;;
19679;SDS011;9989;48.962;9.182;2023-10-31T05:03:38;4.33;;;1.10;;
19679;SDS011;9989;48.962;9.182;2023-10-31T05:06:04;2.03;;;0.90;;
19679;SDS011;9989;48.962;9.182;2023-10-31T05:08:30;3.40;;;1.30;;
19679;SDS011;9989;48.962;9.182;2023-10-31T05:10:56;5.87;;;1.20;;
19679;SDS011;9989;48.962;9.182;2023-10-31T05:13:23;2.03;;;0.97;;
19679;SDS011;9989;48.962;9.182;2023-10-31T05:15:48;3.50;;;0.93;;
19679;SDS011;9989;48.962;9.182;2023-10-31T05:18:15;1.77;;;0.70;;
19679;SDS011;9989;48.962;9.182;2023-10-31T05:20:40;3.50;;;1.10;;
19679;SDS011;9989;48.962;9.182;2023-10-31T05:23:06;3.40;;;0.90;;
19679;SDS011;9989;48.962;9.182;2023-10-31T05:25:32;3.27;;;0.87;;
19679;SDS011;9989;48.962;9.182;2023-10-31T05:27:57;3.30;;;1.20;;
19679;SDS011;9989;48.962;9.182;2023-10-31T05:30:24;3.20;;;1.20;;
19679;SDS011;9989;48.962;9.182;2023-10-31T05:32:50;3.37;;;1.30;;
19679;SDS011;9989;48.962;9.182;2023-10-31T05:35:16;4.53;;;1.20;;
19679;SDS011;9989;48.962;9.182;2023-10-31T05:37:42;1.87;;;1.10;;
19679;SDS011;9989;48.962;9.182;2023-10-31T05:40:09;3.60;;;1.17;;
19679;SDS011;9989;48.962;9.182;2023-10-31T05:42:35;2.83;;;1.00;;
19679;SDS011;9989;48.962;9.182;2023-10-31T05:45:01;9.17;;;3.13;;
19679;SDS011;9989;48.962;9.182;2023-10-31T05:47:27;13.97;;;6.50;;
19679;SDS011;9989;48.962;9.182;2023-10-31T05:49:53;14.10;;;7.37;;
19679;SDS011;9989;48.962;9.182;2023-10-31T05:52:19;13.83;;;6.13;;
19679;SDS011;9989;48.962;9.182;2023-10-31T05:54:44;7.47;;;2.47;;
19679;SDS011;9989;48.962;9.182;2023-10-31T05:57:10;3.40;;;1.20;;
19679;SDS011;9989;48.962;9.182;2023-10-31T05:59:36;2.13;;;1.20;;
19679;SDS011;9989;48.962;9.182;2023-10-31T06:02:02;2.13;;;1.00;;
19679;SDS011;9989;48.962;9.182;2023-10-31T06:04:28;2.50;;;1.00;;
19679;SDS011;9989;48.962;9.182;2023-10-31T06:06:53;2.13;;;1.00;;
19679;SDS011;9989;48.962;9.182;2023-10-31T06:09:19;1.37;;;0.80;;
19679;SDS011;9989;48.962;9.182;2023-10-31T06:11:44;3.33;;;1.00;;
19679;SDS011;9989;48.962;9.182;2023-10-31T06:14:10;7.40;;;2.33;;
19679;SDS011;9989;48.962;9.182;2023-10-31T06:16:43;4.00;;;1.40;;
19679;SDS011;9989;48.962;9.182;2023-10-31T06:19:09;4.63;;;1.43;;
19679;SDS011;9989;48.962;9.182;2023-10-31T06:21:35;2.13;;;1.20;;
19679;SDS011;9989;48.962;9.182;2023-10-31T06:24:01;3.07;;;1.43;;
19679;SDS011;9989;48.962;9.182;2023-10-31T06:26:27;3.20;;;1.30;;
19679;SDS011;9989;48.962;9.182;2023-10-31T06:28:53;4.27;;;1.80;;
19679;SDS011;9989;48.962;9.182;2023-10-31T06:31:18;4.93;;;2.03;;
19679;SDS011;9989;48.962;9.182;2023-10-31T06:33:44;4.73;;;1.67;;
19679;SDS011;9989;48.962;9.182;2023-10-31T06:36:09;4.33;;;1.80;;
19679;SDS011;9989;48.962;9.182;2023-10-31T06:38:35;6.50;;;2.40;;
19679;SDS011;9989;48.962;9.182;2023-10-31T06:41:01;3.70;;;2.03;;
19679;SDS011;9989;48.962;9.182;2023-10-31T06:43:26;4.03;;;1.60;;
19679;SDS011;9989;48.962;9.182;2023-10-31T06:45:53;3.70;;;1.30;;
19679;SDS011;9989;48.962;9.182;2023-10-31T06:48:18;2.50;;;1.10;;
19679;SDS011;9989;48.962;9.182;2023-10-31T06:50:44;2.50;;;0.97;;
19679;SDS011;9989;48.962;9.182;2023-10-31T06:53:10;4.63;;;1.33;;
19679;SDS011;9989;48.962;9.182;2023-10-31T06:55:35;3.63;;;1.10;;
19679;SDS011;9989;48.962;9.182;2023-10-31T06:58:01;2.07;;;0.80;;
19679;SDS011;9989;48.962;9.182;2023-10-31T07:00:27;3.70;;;1.00;;
19679;SDS011;9989;48.962;9.182;2023-10-31T07:02:53;2.10;;;1.03;;
19679;SDS011;9989;48.962;9.182;2023-10-31T07:05:18;3.87;;;1.27;;
19679;SDS011;9989;48.962;9.182;2023-10-31T07:07:45;1.53;;;1.10;;
19679;SDS011;9989;48.962;9.182;2023-10-31T07:10:11;3.13;;;1.00;;
19679;SDS011;9989;48.962;9.182;2023-10-31T07:12:37;2.80;;;1.20;;
19679;SDS011;9989;48.962;9.182;2023-10-31T07:15:03;5.93;;;1.37;;
19679;SDS011;9989;48.962;9.182;2023-10-31T07:17:29;2.40;;;1.13;;
19679;SDS011;9989;48.962;9.182;2023-10-31T07:19:56;2.50;;;1.10;;
19679;SDS011;9989;48.962;9.182;2023-10-31T07:22:24;3.53;;;1.47;;
19679;SDS011;9989;48.962;9.182;2023-10-31T07:24:50;1.80;;;1.13;;
19679;SDS011;9989;48.962;9.182;2023-10-31T07:27:16;2.93;;;1.03;;
19679;SDS011;9989;48.962;9.182;2023-10-31T07:29:42;2.97;;;1.10;;
19679;SDS011;9989;48.962;9.182;2023-10-31T07:32:08;5.60;;;1.40;;
19679;SDS011;9989;48.962;9.182;2023-10-31T07:34:34;8.80;;;1.40;;
19679;SDS011;9989;48.962;9.182;2023-10-31T07:37:01;4.13;;;1.80;;
19679;SDS011;9989;48.962;9.182;2023-10-31T07:39:27;3.83;;;1.40;;
19679;SDS011;9989;48.962;9.182;2023-10-31T07:41:52;3.47;;;1.30;;
19679;SDS011;9989;48.962;9.182;2023-10-31T07:44:18;3.67;;;1.30;;
19679;SDS011;9989;48.962;9.182;2023-10-31T07:46:43;4.77;;;1.30;;
19679;SDS011;9989;48.962;9.182;2023-10-31T07:49:09;3.10;;;1.20;;
19679;SDS011;9989;48.962;9.182;2023-10-31T07:51:35;4.53;;;1.00;;
19679;SDS011;9989;48.962;9.182;2023-10-31T07:54:00;2.10;;;0.90;;
19679;SDS011;9989;48.962;9.182;2023-10-31T07:56:26;1.17;;;0.80;;
19679;SDS011;9989;48.962;9.182;2023-10-31T07:58:52;5.33;;;1.60;;
19679;SDS011;9989;48.962;9.182;2023-10-31T08:01:18;2.73;;;1.10;;
19679;SDS011;9989;48.962;9.182;2023-10-31T08:03:45;4.73;;;1.73;;
19679;SDS011;9989;48.962;9.182;2023-10-31T08:06:12;2.50;;;1.07;;
19679;SDS011;9989;48.962;9.182;2023-10-31T08:08:38;3.20;;;1.07;;
19679;SDS011;9989;48.962;9.182;2023-10-31T08:11:07;3.40;;;1.10;;
19679;SDS011;9989;48.962;9.182;2023-10-31T08:13:33;2.40;;;1.10;;
19679;SDS011;9989;48.962;9.182;2023-10-31T08:15:58;2.37;;;1.00;;
19679;SDS011;9989;48.962;9.182;2023-10-31T08:18:24;5.97;;;1.10;;
19679;SDS011;9989;48.962;9.182;2023-10-31T08:20:49;2.63;;;1.10;;
19679;SDS011;9989;48.962;9.182;2023-10-31T08:23:16;3.70;;;1.13;;
19679;SDS011;9989;48.962;9.182;2023-10-31T08:25:42;4.13;;;1.10;;
19679;SDS011;9989;48.962;9.182;2023-10-31T08:28:09;2.77;;;1.20;;
19679;SDS011;9989;48.962;9.182;2023-10-31T08:30:35;3.47;;;1.77;;
19679;SDS011;9989;48.962;9.182;2023-10-31T08:33:00;7.10;;;1.30;;
19679;SDS011;9989;48.962;9.182;2023-10-31T08:35:26;5.00;;;1.77;;
19679;SDS011;9989;48.962;9.182;2023-10-31T08:37:52;5.00;;;1.90;;
19679;SDS011;9989;48.962;9.182;2023-10-31T08:40:18;5.40;;;1.30;;
19679;SDS011;9989;48.962;9.182;2023-10-31T08:42:44;7.83;;;1.67;;
19679;SDS011;9989;48.962;9.182;2023-10-31T08:45:10;3.47;;;1.63;;
19679;SDS011;9989;48.962;9.182;2023-10-31T08:47:36;2.53;;;1.10;;
19679;SDS011;9989;48.962;9.182;2023-10-31T08:50:01;5.67;;;1.53;;
19679;SDS011;9989;48.962;9.182;2023-10-31T08:52:27;2.63;;;1.27;;
19679;SDS011;9989;48.962;9.182;2023-10-31T08:54:53;6.83;;;1.30;;
19679;SDS011;9989;48.962;9.182;2023-10-31T08:57:18;5.83;;;1.80;;
19679;SDS011;9989;48.962;9.182;2023-10-31T08:59:44;5.23;;;1.60;;
19679;SDS011;9989;48.962;9.182;2023-10-31T09:02:10;4.60;;;1.30;;
19679;SDS011;9989;48.962;9.182;2023-10-31T09:04:36;5.83;;;1.77;;
19679;SDS011;9989;48.962;9.182;2023-10-31T09:07:01;4.97;;;1.70;;
19679;SDS011;9989;48.962;9.182;2023-10-31T09:09:27;5.97;;;2.30;;
19679;SDS011;9989;48.962;9.182;2023-10-31T09:11:53;3.57;;;1.37;;
19679;SDS011;9989;48.962;9.182;2023-10-31T09:14:18;5.97;;;1.80;;
19679;SDS011;9989;48.962;9.182;2023-10-31T09:16:44;3.17;;;1.37;;
19679;SDS011;9989;48.962;9.182;2023-10-31T09:19:10;4.57;;;1.30;;
19679;SDS011;9989;48.962;9.182;2023-10-31T09:21:36;3.90;;;1.07;;
19679;SDS011;9989;48.962;9.182;2023-10-31T09:24:02;6.57;;;1.60;;
19679;SDS011;9989;48.962;9.182;2023-10-31T09:26:27;3.00;;;1.27;;
19679;SDS011;9989;48.962;9.182;2023-10-31T09:28:53;4.10;;;1.30;;
19679;SDS011;9989;48.962;9.182;2023-10-31T09:31:20;3.53;;;1.40;;
19679;SDS011;9989;48.962;9.182;2023-10-31T09:33:45;4.87;;;1.60;;
19679;SDS011;9989;48.962;9.182;2023-10-31T09:36:11;10.27;;;2.00;;
19679;SDS011;9989;48.962;9.182;2023-10-31T09:38:38;5.23;;;1.70;;
19679;SDS011;9989;48.962;9.182;2023-10-31T09:41:04;3.97;;;1.30;;
19679;SDS011;9989;48.962;9.182;2023-10-31T09:43:30;6.27;;;1.77;;
19679;SDS011;9989;48.962;9.182;2023-10-31T09:45:57;2.90;;;1.00;;
19679;SDS011;9989;48.962;9.182;2023-10-31T09:48:23;6.20;;;1.83;;
19679;SDS011;9989;48.962;9.182;2023-10-31T09:50:49;6.73;;;1.23;;
19679;SDS011;9989;48.962;9.182;2023-10-31T09:53:15;7.13;;;1.47;;
19679;SDS011;9989;48.962;9.182;2023-10-31T09:55:43;3.60;;;1.10;;
19679;SDS011;9989;48.962;9.182;2023-10-31T09:58:11;2.73;;;0.90;;
19679;SDS011;9989;48.962;9.182;2023-10-31T10:00:37;4.37;;;1.30;;
19679;SDS011;9989;48.962;9.182;2023-10-31T10:03:05;7.23;;;1.27;;
19679;SDS011;9989;48.962;9.182;2023-10-31T10:05:33;3.60;;;1.60;;
19679;SDS011;9989;48.962;9.182;2023-10-31T10:08:00;5.60;;;1.40;;
19679;SDS011;9989;48.962;9.182;2023-10-31T10:10:26;3.20;;;1.10;;
19679;SDS011;9989;48.962;9.182;2023-10-31T10:12:52;5.17;;;1.10;;
19679;SDS011;9989;48.962;9.182;2023-10-31T10:15:18;7.13;;;1.67;;
19679;SDS011;9989;48.962;9.182;2023-10-31T10:17:50;4.77;;;1.20;;
19679;SDS011;9989;48.962;9.182;2023-10-31T10:20:16;3.37;;;1.17;;
19679;SDS011;9989;48.962;9.182;2023-10-31T10:22:43;4.40;;;1.30;;
19679;SDS011;9989;48.962;9.182;2023-10-31T10:25:13;3.47;;;1.20;;
19679;SDS011;9989;48.962;9.182;2023-10-31T10:27:42;2.97;;;1.13;;
19679;SDS011;9989;48.962;9.182;2023-10-31T10:30:08;2.97;;;1.10;;
19679;SDS011;9989;48.962;9.182;2023-10-31T10:32:34;4.90;;;1.10;;
19679;SDS011;9989;48.962;9.182;2023-10-31T10:35:00;7.90;;;1.60;;
19679;SDS011;9989;48.962;9.182;2023-10-31T10:37:26;5.33;;;1.53;;
19679;SDS011;9989;48.962;9.182;2023-10-31T10:39:53;6.47;;;1.10;;
19679;SDS011;9989;48.962;9.182;2023-10-31T10:42:31;5.40;;;1.13;;
19679;SDS011;9989;48.962;9.182;2023-10-31T10:45:03;3.63;;;1.20;;
19679;SDS011;9989;48.962;9.182;2023-10-31T10:47:33;9.13;;;1.10;;
19679;SDS011;9989;48.962;9.182;2023-10-31T10:50:03;4.00;;;1.43;;
19679;SDS011;9989;48.962;9.182;2023-10-31T10:55:04;5.77;;;1.27;;
19679;SDS011;9989;48.962;9.182;2023-10-31T10:57:37;3.30;;;1.20;;
19679;SDS011;9989;48.962;9.182;2023-10-31T11:00:07;4.97;;;1.30;;
19679;SDS011;9989;48.962;9.182;2023-10-31T11:02:35;5.97;;;1.57;;
19679;SDS011;9989;48.962;9.182;2023-10-31T11:05:05;5.13;;;1.20;;
19679;SDS011;9989;48.962;9.182;2023-10-31T11:07:35;4.83;;;1.57;;
19679;SDS011;9989;48.962;9.182;2023-10-31T11:10:02;4.53;;;1.10;;
19679;SDS011;9989;48.962;9.182;2023-10-31T11:12:30;3.40;;;1.30;;
19679;SDS011;9989;48.962;9.182;2023-10-31T11:14:57;2.60;;;1.20;;
19679;SDS011;9989;48.962;9.182;2023-10-31T11:17:24;5.33;;;1.13;;
19679;SDS011;9989;48.962;9.182;2023-10-31T11:19:54;5.47;;;1.30;;
19679;SDS011;9989;48.962;9.182;2023-10-31T11:22:21;3.97;;;1.33;;
19679;SDS011;9989;48.962;9.182;2023-10-31T11:24:47;7.13;;;1.23;;
19679;SDS011;9989;48.962;9.182;2023-10-31T11:27:14;4.67;;;0.93;;
19679;SDS011;9989;48.962;9.182;2023-10-31T11:29:41;3.53;;;1.00;;
19679;SDS011;9989;48.962;9.182;2023-10-31T11:32:10;3.27;;;0.97;;
19679;SDS011;9989;48.962;9.182;2023-10-31T11:34:39;3.33;;;0.93;;
19679;SDS011;9989;48.962;9.182;2023-10-31T11:37:26;5.53;;;0.80;;
19679;SDS011;9989;48.962;9.182;2023-10-31T11:42:49;2.63;;;0.90;;
19679;SDS011;9989;48.962;9.182;2023-10-31T11:45:35;4.10;;;1.00;;
19679;SDS011;9989;48.962;9.182;2023-10-31T11:48:02;2.87;;;0.90;;
19679;SDS011;9989;48.962;9.182;2023-10-31T11:50:32;2.10;;;1.00;;
19679;SDS011;9989;48.962;9.182;2023-10-31T11:52:59;4.03;;;0.83;;
19679;SDS011;9989;48.962;9.182;2023-10-31T11:55:29;5.43;;;1.20;;
19679;SDS011;9989;48.962;9.182;2023-10-31T12:00:43;6.00;;;1.67;;
19679;SDS011;9989;48.962;9.182;2023-10-31T12:03:14;3.23;;;1.43;;
19679;SDS011;9989;48.962;9.182;2023-10-31T12:05:54;3.30;;;1.20;;
19679;SDS011;9989;48.962;9.182;2023-10-31T12:08:24;3.70;;;1.30;;
19679;SDS011;9989;48.962;9.182;2023-10-31T12:11:02;5.70;;;1.00;;
19679;SDS011;9989;48.962;9.182;2023-10-31T12:13:29;5.60;;;1.10;;
19679;SDS011;9989;48.962;9.182;2023-10-31T12:15:54;1.90;;;0.90;;
19679;SDS011;9989;48.962;9.182;2023-10-31T12:18:20;2.90;;;0.97;;
19679;SDS011;9989;48.962;9.182;2023-10-31T12:20:46;3.53;;;1.00;;
19679;SDS011;9989;48.962;9.182;2023-10-31T12:23:15;2.80;;;0.60;;
19679;SDS011;9989;48.962;9.182;2023-10-31T12:25:49;3.83;;;1.07;;
19679;SDS011;9989;48.962;9.182;2023-10-31T12:28:19;9.60;;;3.07;;
19679;SDS011;9989;48.962;9.182;2023-10-31T12:30:46;8.93;;;2.63;;
19679;SDS011;9989;48.962;9.182;2023-10-31T12:33:19;6.60;;;1.80;;
19679;SDS011;9989;48.962;9.182;2023-10-31T12:35:46;3.53;;;1.40;;
19679;SDS011;9989;48.962;9.182;2023-10-31T12:38:13;4.53;;;1.60;;
19679;SDS011;9989;48.962;9.182;2023-10-31T12:40:40;4.30;;;1.40;;
19679;SDS011;9989;48.962;9.182;2023-10-31T12:43:07;2.90;;;1.20;;
19679;SDS011;9989;48.962;9.182;2023-10-31T12:45:34;5.33;;;2.30;;
19679;SDS011;9989;48.962;9.182;2023-10-31T12:48:04;8.27;;;1.90;;
19679;SDS011;9989;48.962;9.182;2023-10-31T12:50:35;5.80;;;1.50;;
19679;SDS011;9989;48.962;9.182;2023-10-31T12:53:08;5.60;;;1.90;;
19679;SDS011;9989;48.962;9.182;2023-10-31T12:55:37;5.17;;;1.90;;
19679;SDS011;9989;48.962;9.182;2023-10-31T12:58:04;4.57;;;1.67;;
19679;SDS011;9989;48.962;9.182;2023-10-31T13:00:31;7.90;;;1.97;;
19679;SDS011;9989;48.962;9.182;2023-10-31T13:03:01;4.83;;;1.80;;
19679;SDS011;9989;48.962;9.182;2023-10-31T13:05:29;4.20;;;1.60;;
19679;SDS011;9989;48.962;9.182;2023-10-31T13:07:55;5.90;;;1.97;;
19679;SDS011;9989;48.962;9.182;2023-10-31T13:10:23;5.00;;;1.97;;
19679;SDS011;9989;48.962;9.182;2023-10-31T13:12:50;7.47;;;2.90;;
19679;SDS011;9989;48.962;9.182;2023-10-31T13:15:18;11.17;;;3.20;;
19679;SDS011;9989;48.962;9.182;2023-10-31T13:17:45;7.87;;;3.30;;
19679;SDS011;9989;48.962;9.182;2023-10-31T13:20:13;8.50;;;3.33;;
19679;SDS011;9989;48.962;9.182;2023-10-31T13:22:41;13.73;;;3.53;;
19679;SDS011;9989;48.962;9.182;2023-10-31T13:25:09;7.70;;;2.57;;
19679;SDS011;9989;48.962;9.182;2023-10-31T13:27:38;8.30;;;3.10;;
19679;SDS011;9989;48.962;9.182;2023-10-31T13:30:09;7.50;;;3.10;;
19679;SDS011;9989;48.962;9.182;2023-10-31T13:32:41;9.03;;;2.83;;
19679;SDS011;9989;48.962;9.182;2023-10-31T13:35:15;7.87;;;2.60;;
19679;SDS011;9989;48.962;9.182;2023-10-31T13:37:42;9.53;;;3.20;;
19679;SDS011;9989;48.962;9.182;2023-10-31T13:40:09;8.93;;;2.70;;
19679;SDS011;9989;48.962;9.182;2023-10-31T13:42:38;10.90;;;2.97;;
19679;SDS011;9989;48.962;9.182;2023-10-31T13:45:05;9.77;;;3.57;;
19679;SDS011;9989;48.962;9.182;2023-10-31T13:47:32;8.37;;;2.40;;
19679;SDS011;9989;48.962;9.182;2023-10-31T13:49:59;8.10;;;2.47;;
19679;SDS011;9989;48.962;9.182;2023-10-31T13:52:26;8.30;;;2.83;;
19679;SDS011;9989;48.962;9.182;2023-10-31T13:54:53;8.83;;;2.60;;
19679;SDS011;9989;48.962;9.182;2023-10-31T13:57:20;7.40;;;2.50;;
19679;SDS011;9989;48.962;9.182;2023-10-31T13:59:47;4.87;;;1.80;;
19679;SDS011;9989;48.962;9.182;2023-10-31T14:02:16;5.90;;;1.57;;
19679;SDS011;9989;48.962;9.182;2023-10-31T14:04:42;3.67;;;1.40;;
19679;SDS011;9989;48.962;9.182;2023-10-31T14:07:10;3.60;;;1.40;;
19679;SDS011;9989;48.962;9.182;2023-10-31T14:09:41;4.03;;;1.37;;
19679;SDS011;9989;48.962;9.182;2023-10-31T14:12:08;3.90;;;1.37;;
19679;SDS011;9989;48.962;9.182;2023-10-31T14:14:34;3.10;;;1.30;;
19679;SDS011;9989;48.962;9.182;2023-10-31T14:17:01;3.50;;;1.40;;
19679;SDS011;9989;48.962;9.182;2023-10-31T14:19:30;4.07;;;1.63;;
19679;SDS011;9989;48.962;9.182;2023-10-31T14:21:56;2.13;;;0.97;;
19679;SDS011;9989;48.962;9.182;2023-10-31T14:24:23;3.70;;;1.00;;
19679;SDS011;9989;48.962;9.182;2023-10-31T14:26:49;2.73;;;0.80;;
19679;SDS011;9989;48.962;9.182;2023-10-31T14:29:15;1.40;;;0.80;;
19679;SDS011;9989;48.962;9.182;2023-10-31T14:31:42;3.77;;;1.30;;
19679;SDS011;9989;48.962;9.182;2023-10-31T14:34:09;3.03;;;1.07;;
19679;SDS011;9989;48.962;9.182;2023-10-31T14:36:36;2.87;;;1.33;;
19679;SDS011;9989;48.962;9.182;2023-10-31T14:39:02;4.00;;;1.27;;
19679;SDS011;9989;48.962;9.182;2023-10-31T14:41:30;3.97;;;1.30;;
19679;SDS011;9989;48.962;9.182;2023-10-31T14:43:59;2.33;;;1.00;;
19679;SDS011;9989;48.962;9.182;2023-10-31T14:46:29;2.00;;;1.00;;
19679;SDS011;9989;48.962;9.182;2023-10-31T14:48:57;2.83;;;0.90;;
19679;SDS011;9989;48.962;9.182;2023-10-31T14:51:24;1.73;;;0.97;;
19679;SDS011;9989;48.962;9.182;2023-10-31T14:53:50;2.10;;;0.90;;
19679;SDS011;9989;48.962;9.182;2023-10-31T14:56:17;2.93;;;0.90;;
19679;SDS011;9989;48.962;9.182;2023-10-31T14:58:43;2.03;;;0.80;;
19679;SDS011;9989;48.962;9.182;2023-10-31T15:01:10;2.67;;;1.00;;
19679;SDS011;9989;48.962;9.182;2023-10-31T15:03:36;3.53;;;1.00;;
19679;SDS011;9989;48.962;9.182;2023-10-31T15:06:03;2.90;;;1.20;;